Portada
METAR-TAF:

METAR-TAF

Aeroports :

Gove Peninsula, Austràlia

latitud: 12-16-12S, longitud: 136-49-06E, altitud: 62 m

Observació

L'informe es va fer fa 34 minuts, a les 07:30 UTC
Vent 13 kt del Est/Sud-Est
Temperatura 27°C
Humitat 62%
Pressió 1011 hPa
Visibilitat 10 km o més
Núvols disperses a una alçada de 2700 ft
Cel ennuvolat a una alçada de 3300 ft
Cel ennuvolat a una alçada de 4400 ft

METAR: YPGV 250730Z AUTO 11013KT 9999 // SCT027 BKN033 BKN044 27/19 Q1011

Hora: 17:34 (08:04 UTC)

Pronòstic

L'informe es va fer fa 1 hora i 30 minuts, a les 06:34 UTC
Pronòstic vàlid del 25 a les 08 UTC al 25 a les 20 UTC
Vent 14 kt del Est
Visibilitat 10 km o més
Núvols disperses a una alçada de 2500 ft
A partir de les 25 a les 0900 UTC
Vent 6 kt del Est/Sud-Est
Visibilitat 10 km o més
Escasses núvols a una alçada de 1500 ft

TAF: YPGV 250634Z 2508/2520 10014KT 9999 SCT025 FM250900 12006KT 9999 FEW015

Observacions i pronòstics meteorològics de més de 4000 aeroports (METAR i TAF).

Les estacions disponibles són els punts grocs i vermells al mapa.

Posi el ratolí al punt desitjat per veure el nom de l'estació.

Feu clic per veure les observacions i els pronòstics meteorològics.

Per canviar el mapa: feu clic els botons verds amb una creu de color negre per apropar; al botó verd amb un guió per allunyar la imatge; o en les fletxes verdes per a mapes adjacents.


METAR-TAF: